Time;durP1;ratioP1;P1;durP2;ratioP2;P2;SDS_P1;SDS_P2;PMS_P1;PMS_P2;Temp;Humidity;BMP_temperature;BMP_pressure;BME280_temperature;BME280_humidity;BME280_pressure;Samples;Min_cycle;Max_cycle;Signal;HPM_P1;HPM_P2
2022/10/02 00:02:22;;;;;;;16.63;3.57;;;;;;;19.91;62.93;100647.16;5061045;28;20457;-62
2022/10/02 00:05:19;;;;;;;15.03;3.83;;;;;;;19.90;63.16;100634.84;5057852;28;20451;-63
2022/10/02 00:07:45;;;;;;;17.77;3.33;;;;;;;19.92;63.13;100629.56;5073432;28;20413;-63
2022/10/02 00:10:13;;;;;;;20.97;3.80;;;;;;;19.88;63.25;100628.69;5072942;28;20989;-63
2022/10/02 00:12:38;;;;;;;14.63;3.77;;;;;;;19.87;63.15;100641.34;5055328;28;20406;-62
2022/10/02 00:15:19;;;;;;;14.73;4.40;;;;;;;19.85;63.31;100638.03;5073084;28;20527;-62
2022/10/02 00:17:46;;;;;;;11.17;2.97;;;;;;;19.89;63.29;100638.94;5072607;28;20535;-63
2022/10/02 00:20:13;;;;;;;27.87;4.63;;;;;;;19.89;63.39;100621.75;5055042;28;20938;-62
2022/10/02 00:22:45;;;;;;;20.53;4.23;;;;;;;19.86;63.35;100642.56;5055061;28;20441;-63
2022/10/02 00:25:25;;;;;;;12.83;3.60;;;;;;;19.85;63.53;100660.97;5038920;28;20445;-62
2022/10/02 00:28:07;;;;;;;12.67;2.97;;;;;;;19.85;63.54;100666.69;5038779;28;20417;-62
2022/10/02 00:30:36;;;;;;;21.40;4.07;;;;;;;19.86;63.45;100665.47;5056117;28;20433;-62
2022/10/02 00:33:19;;;;;;;14.70;3.93;;;;;;;19.84;63.87;100667.06;5038777;28;20525;-62
2022/10/02 00:36:09;;;;;;;15.13;4.10;;;;;;;19.84;63.86;100665.03;5055771;28;20466;-62
2022/10/02 00:38:42;;;;;;;15.30;2.80;;;;;;;19.85;63.66;100668.72;5072768;28;20413;-63
2022/10/02 00:41:32;;;;;;;13.70;3.00;;;;;;;19.84;63.81;100669.94;5054439;28;20784;-62
2022/10/02 00:44:01;;;;;;;14.07;3.30;;;;;;;19.82;63.95;100678.09;5072760;28;20413;-63
2022/10/02 00:46:54;;;;;;;20.07;3.70;;;;;;;19.83;63.80;100674.84;5088055;28;20491;-63
2022/10/02 00:49:26;;;;;;;18.00;4.30;;;;;;;19.84;63.81;100676.50;5072444;28;21096;-63
2022/10/02 00:51:54;;;;;;;18.73;3.33;;;;;;;19.82;63.74;100672.34;5086427;28;20457;-62
2022/10/02 00:54:27;;;;;;;16.50;3.60;;;;;;;19.82;63.81;100683.81;5072390;28;20432;-63
2022/10/02 00:57:24;;;;;;;18.37;4.40;;;;;;;19.81;63.93;100674.38;5072203;28;20414;-62
2022/10/02 01:03:04;;;;;;;12.03;2.87;;;;;;;19.80;64.13;100687.06;5063746;28;20502;-62
2022/10/02 01:05:30;;;;;;;15.27;3.10;;;;;;;19.82;64.25;100684.63;5071918;28;21003;-63
2022/10/02 01:07:56;;;;;;;13.17;3.77;;;;;;;19.80;63.94;100669.88;5051366;28;20425;-62
2022/10/02 01:10:22;;;;;;;14.97;3.50;;;;;;;19.78;64.06;100666.56;5037327;28;20170;-62
2022/10/02 01:12:48;;;;;;;12.13;2.97;;;;;;;19.79;64.15;100659.63;5054064;28;20678;-63
2022/10/02 01:15:17;;;;;;;18.53;4.20;;;;;;;19.79;64.15;100658.78;5071766;28;20425;-62
2022/10/02 01:17:42;;;;;;;10.40;2.53;;;;;;;19.80;64.14;100661.28;5054227;28;20410;-63
2022/10/02 01:20:20;;;;;;;11.17;2.90;;;;;;;19.78;64.13;100666.56;5053818;28;20519;-63
2022/10/02 01:23:27;;;;;;;14.10;3.53;;;;;;;19.76;64.19;100659.56;5072314;28;20177;-63
2022/10/02 01:25:53;;;;;;;14.80;3.37;;;;;;;19.78;64.13;100666.56;5071443;28;20463;-62
2022/10/02 01:28:18;;;;;;;15.83;3.47;;;;;;;19.79;64.17;100671.09;5036674;28;20512;-62
2022/10/02 01:30:46;;;;;;;11.00;3.10;;;;;;;19.77;64.34;100681.28;5071370;28;20160;-62
2022/10/02 01:33:12;;;;;;;15.30;3.37;;;;;;;19.77;64.29;100681.28;5053873;28;20658;-63
2022/10/02 01:35:38;;;;;;;13.97;3.27;;;;;;;19.75;64.40;100673.03;5033042;28;20504;-63
2022/10/02 01:38:06;;;;;;;12.83;3.67;;;;;;;19.77;64.37;100669.81;5037443;28;20630;-63
2022/10/02 01:40:33;;;;;;;16.43;3.70;;;;;;;19.76;64.17;100663.25;5033959;28;20187;-63
2022/10/02 01:43:09;;;;;;;11.30;3.03;;;;;;;19.75;64.30;100661.59;5051591;28;20410;-62
2022/10/02 01:45:41;;;;;;;14.37;3.30;;;;;;;19.75;64.29;100672.22;5033611;28;20602;-63
2022/10/02 01:48:34;;;;;;;11.47;3.70;;;;;;;19.77;64.05;100673.47;5051169;28;20503;-63
2022/10/02 01:51:34;;;;;;;17.93;3.27;;;;;;;19.78;64.20;100663.69;5054583;28;20493;-62
2022/10/02 01:54:26;;;;;;;8.37;2.67;;;;;;;19.74;64.37;100664.81;5071193;28;20413;-63
2022/10/02 01:56:58;;;;;;;19.10;4.13;;;;;;;19.76;64.28;100671.84;5036483;28;20433;-62
2022/10/02 01:59:42;;;;;;;12.57;2.87;;;;;;;19.75;64.49;100678.78;5053325;28;20417;-62
2022/10/02 02:02:32;;;;;;;12.97;3.47;;;;;;;19.73;64.59;100669.75;5071089;28;20421;-62
2022/10/02 02:05:11;;;;;;;10.60;2.87;;;;;;;19.74;64.30;100659.94;5072338;28;20513;-63
2022/10/02 02:07:49;;;;;;;12.03;3.40;;;;;;;19.75;64.30;100649.28;5056775;28;20446;-63
2022/10/02 02:10:41;;;;;;;16.43;3.30;;;;;;;19.74;64.41;100654.22;5057033;28;20408;-63
2022/10/02 02:13:12;;;;;;;16.07;3.20;;;;;;;19.76;64.06;100651.78;5068939;28;20432;-63
2022/10/02 02:16:03;;;;;;;7.80;3.30;;;;;;;19.76;64.15;100650.97;5091175;28;20868;-62
2022/10/02 02:18:34;;;;;;;9.00;2.63;;;;;;;19.74;64.38;100667.69;5058299;28;20416;-63
2022/10/02 02:21:05;;;;;;;10.87;2.90;;;;;;;19.74;64.36;100659.09;5056537;28;20462;-63
2022/10/02 02:23:32;;;;;;;8.13;2.60;;;;;;;19.73;64.27;100658.28;5055858;28;20420;-63
2022/10/02 02:26:11;;;;;;;9.93;2.60;;;;;;;19.72;64.34;100678.72;5056078;28;21181;-63
2022/10/02 02:28:36;;;;;;;9.77;2.80;;;;;;;19.74;64.21;100674.25;5073439;28;20427;-63
2022/10/02 02:31:02;;;;;;;8.13;2.60;;;;;;;19.73;64.21;100669.75;5069180;28;20433;-62
2022/10/02 02:33:37;;;;;;;11.00;2.77;;;;;;;19.73;64.13;100660.31;5052172;28;20270;-63
2022/10/02 02:36:11;;;;;;;11.17;3.00;;;;;;;19.75;64.36;100669.34;5034545;28;20240;-63
2022/10/02 02:38:43;;;;;;;10.40;2.70;;;;;;;19.73;64.27;100658.28;5035384;28;20801;-63
2022/10/02 02:41:12;;;;;;;10.10;2.30;;;;;;;19.73;64.21;100664.03;5036078;28;20552;-62
2022/10/02 02:43:46;;;;;;;9.17;2.40;;;;;;;19.75;64.37;100666.47;5035494;28;20444;-63
2022/10/02 02:46:17;;;;;;;15.37;3.13;;;;;;;19.73;64.26;100657.44;5035616;28;20452;-63
2022/10/02 02:48:50;;;;;;;12.30;3.03;;;;;;;19.72;64.24;100650.88;5052025;28;20459;-62
2022/10/02 02:51:36;;;;;;;8.67;2.70;;;;;;;19.76;64.46;100654.66;5052557;28;20476;-63
2022/10/02 02:54:08;;;;;;;7.00;2.00;;;;;;;19.72;64.33;100662.34;5052411;28;20425;-62
2022/10/02 02:56:34;;;;;;;9.90;2.80;;;;;;;19.71;64.34;100657.81;5051613;28;20492;-62
2022/10/02 02:59:04;;;;;;;9.80;2.83;;;;;;;19.73;64.19;100655.41;5070574;28;20777;-63
2022/10/02 03:01:30;;;;;;;9.20;2.93;;;;;;;19.71;64.64;100642.69;5052102;28;20179;-63
2022/10/02 03:03:55;;;;;;;7.37;2.13;;;;;;;19.71;64.21;100648.41;5035973;28;20417;-62
2022/10/02 03:06:45;;;;;;;8.17;2.47;;;;;;;19.71;64.56;100649.22;5052502;28;20187;-63
2022/10/02 03:09:12;;;;;;;8.90;3.20;;;;;;;19.71;64.30;100654.97;5052531;28;20196;-63
2022/10/02 03:12:09;;;;;;;8.60;3.10;;;;;;;19.72;64.41;100655.78;5035223;28;20430;-63
2022/10/02 03:14:37;;;;;;;11.70;3.00;;;;;;;19.73;64.27;100672.63;5068773;28;20456;-63
2022/10/02 03:17:11;;;;;;;10.17;2.70;;;;;;;19.73;64.19;100675.47;5052010;28;20434;-62
2022/10/02 03:19:59;;;;;;;7.47;2.47;;;;;;;19.71;64.33;100663.56;5052278;28;20409;-63
2022/10/02 03:22:40;;;;;;;10.30;2.83;;;;;;;19.71;64.59;100660.69;5069384;28;20425;-63
2022/10/02 03:25:11;;;;;;;8.83;2.90;;;;;;;19.71;64.33;100669.28;5069444;28;20818;-62
2022/10/02 03:27:53;;;;;;;9.60;2.70;;;;;;;19.71;64.18;100654.16;5050645;28;20428;-63
2022/10/02 03:30:23;;;;;;;8.10;2.47;;;;;;;19.69;64.37;100654.53;5052601;28;20429;-63
2022/10/02 03:32:52;;;;;;;10.30;3.20;;;;;;;19.71;64.17;100657.81;5047401;28;20913;-62
2022/10/02 03:35:18;;;;;;;12.50;3.20;;;;;;;19.68;64.35;100657.75;5016186;28;20398;-62
2022/10/02 03:37:44;;;;;;;9.00;2.47;;;;;;;19.73;64.27;100655.41;5022611;28;20452;-62
2022/10/02 03:40:10;;;;;;;10.03;2.60;;;;;;;19.74;64.57;100662.81;5050877;28;20248;-63
2022/10/02 03:42:35;;;;;;;8.80;3.00;;;;;;;19.73;64.17;100660.31;5051908;28;20433;-62
2022/10/02 03:45:01;;;;;;;8.77;2.33;;;;;;;19.69;64.21;100657.38;5070223;28;20206;-63
2022/10/02 03:47:28;;;;;;;12.83;3.20;;;;;;;19.72;64.28;100653.75;5069916;28;20354;-63
2022/10/02 03:49:53;;;;;;;7.50;2.87;;;;;;;19.69;64.23;100660.25;5069662;28;20246;-62
2022/10/02 03:52:20;;;;;;;10.43;2.40;;;;;;;19.71;64.39;100660.69;5086129;28;20436;-62
2022/10/02 03:54:46;;;;;;;9.00;2.57;;;;;;;19.73;64.21;100661.16;5074018;28;20220;-62
2022/10/02 03:57:14;;;;;;;10.10;2.63;;;;;;;19.70;64.30;100653.31;5072127;28;20978;-62
2022/10/02 03:59:52;;;;;;;7.60;2.80;;;;;;;19.71;64.56;100657.00;5055255;28;20194;-62
2022/10/02 04:02:50;;;;;;;11.40;2.53;;;;;;;19.69;64.29;100648.78;5071169;28;20429;-62
2022/10/02 04:05:24;;;;;;;9.23;2.53;;;;;;;19.70;64.35;100664.75;5053393;28;20496;-62
2022/10/02 04:07:53;;;;;;;6.10;2.43;;;;;;;19.72;64.27;100659.47;5051925;28;20967;-62
2022/10/02 04:10:44;;;;;;;12.50;2.60;;;;;;;19.70;64.35;100658.19;5051902;28;20418;-63
2022/10/02 04:13:23;;;;;;;6.90;2.53;;;;;;;19.68;64.36;100647.16;5046063;28;20446;-63
2022/10/02 04:16:04;;;;;;;9.67;2.60;;;;;;;19.70;64.37;100656.16;5052022;28;20893;-63
2022/10/02 04:19:21;;;;;;;6.80;2.40;;;;;;;19.74;64.13;100657.06;5052793;28;20418;-62
2022/10/02 04:22:18;;;;;;;10.37;3.47;;;;;;;19.68;64.14;100655.75;5027327;28;20458;-62
2022/10/02 04:24:49;;;;;;;9.93;2.30;;;;;;;19.68;64.37;100658.59;5052831;28;20552;-62
2022/10/02 04:27:31;;;;;;;6.60;2.83;;;;;;;19.69;64.36;100657.38;5051784;28;20414;-63
2022/10/02 04:29:58;;;;;;;5.73;2.27;;;;;;;19.70;63.93;100658.19;5064783;28;20421;-63
2022/10/02 04:32:33;;;;;;;10.07;2.47;;;;;;;19.67;64.40;100648.31;5088257;28;20422;-63
2022/10/02 04:34:58;;;;;;;10.00;2.33;;;;;;;19.68;64.27;100649.16;5055179;28;20507;-62
2022/10/02 04:37:37;;;;;;;12.83;3.07;;;;;;;19.70;64.41;100647.56;5072095;28;20426;-63
2022/10/02 04:40:28;;;;;;;8.10;2.20;;;;;;;19.69;64.28;100650.81;5072124;28;20657;-63
2022/10/02 04:43:09;;;;;;;8.50;1.90;;;;;;;19.66;64.59;100648.72;5041006;28;20512;-62
2022/10/02 04:46:07;;;;;;;5.93;2.03;;;;;;;19.70;64.29;100655.34;5072519;28;20457;-63
2022/10/02 04:48:33;;;;;;;11.13;2.43;;;;;;;19.71;64.21;100651.28;5054023;28;20506;-63
2022/10/02 04:51:26;;;;;;;9.13;2.20;;;;;;;19.70;64.12;100656.16;5072497;28;20473;-62
2022/10/02 04:53:57;;;;;;;8.70;2.30;;;;;;;19.74;64.10;100657.06;5054261;28;20688;-63
2022/10/02 04:56:57;;;;;;;8.20;2.60;;;;;;;19.70;64.34;100644.72;5071872;28;20429;-62
2022/10/02 04:59:49;;;;;;;5.93;2.50;;;;;;;19.67;64.20;100642.59;5049773;28;20417;-62
2022/10/02 05:02:29;;;;;;;6.10;2.30;;;;;;;19.69;64.43;100654.53;5070124;28;20445;-62
2022/10/02 05:05:16;;;;;;;4.97;2.43;;;;;;;19.71;64.56;100649.22;5090861;28;20456;-62
2022/10/02 05:08:29;;;;;;;7.30;1.87;;;;;;;19.71;64.17;100631.22;5077290;28;20485;-62
2022/10/02 05:11:08;;;;;;;6.10;2.17;;;;;;;19.69;64.28;100639.34;4990608;28;20960;-62
2022/10/02 05:13:52;;;;;;;8.57;2.40;;;;;;;19.72;64.03;100632.88;5069100;28;20425;-63
2022/10/02 05:16:22;;;;;;;10.90;2.77;;;;;;;19.71;64.41;100631.22;5071968;28;20829;-62
2022/10/02 05:18:47;;;;;;;5.70;1.77;;;;;;;19.68;64.26;100631.97;5050923;28;20417;-62
2022/10/02 05:21:32;;;;;;;10.30;2.20;;;;;;;19.68;64.43;100632.81;5072266;28;20424;-62
2022/10/02 05:24:20;;;;;;;6.13;2.33;;;;;;;19.68;64.44;100623.38;5053673;28;20183;-62
2022/10/02 05:27:07;;;;;;;5.00;1.80;;;;;;;19.68;64.45;100627.09;5071871;28;20402;-63
2022/10/02 05:29:49;;;;;;;7.73;2.53;;;;;;;19.70;64.26;100618.94;5053822;28;20421;-62
2022/10/02 05:32:41;;;;;;;8.50;2.50;;;;;;;19.70;64.33;100627.53;5053780;28;20428;-63
2022/10/02 05:35:51;;;;;;;5.73;2.03;;;;;;;19.70;64.33;100644.72;5070392;28;20492;-63
2022/10/02 05:39:19;;;;;;;6.20;2.33;;;;;;;19.71;64.32;100654.97;5033519;28;20437;-63
2022/10/02 05:42:09;;;;;;;7.73;2.10;;;;;;;19.70;64.44;100667.63;4989843;28;20451;-62
2022/10/02 05:44:37;;;;;;;5.43;1.90;;;;;;;19.68;64.30;100654.91;4973155;28;20524;-62
2022/10/02 05:47:08;;;;;;;9.23;1.97;;;;;;;19.71;64.46;100642.69;5028341;28;20799;-62
2022/10/02 05:49:36;;;;;;;3.90;1.73;;;;;;;19.72;64.16;100633.69;5051207;28;20438;-62
2022/10/02 05:52:16;;;;;;;5.90;2.03;;;;;;;19.70;64.13;100629.56;5033499;28;20414;-62
2022/10/02 05:54:55;;;;;;;9.00;2.07;;;;;;;19.70;64.20;100618.94;5016802;28;20421;-63
2022/10/02 05:57:45;;;;;;;6.60;2.33;;;;;;;19.70;64.36;100618.94;5051141;28;20424;-63
2022/10/02 06:00:32;;;;;;;5.33;1.93;;;;;;;19.69;64.26;100605.81;5051292;28;20447;-62
2022/10/02 06:03:34;;;;;;;6.33;2.33;;;;;;;19.68;64.38;100594.75;5055384;28;20429;-62
2022/10/02 06:06:24;;;;;;;9.07;2.27;;;;;;;19.70;64.14;100613.19;5073052;28;20821;-62
2022/10/02 06:08:57;;;;;;;10.63;2.30;;;;;;;19.69;64.28;100616.44;5091221;28;20416;-62
2022/10/02 06:11:29;;;;;;;4.70;1.83;;;;;;;19.67;64.35;100613.94;5091321;28;20448;-63
2022/10/02 06:14:33;;;;;;;4.77;1.80;;;;;;;19.70;64.29;100627.53;5090893;28;20470;-62
2022/10/02 06:17:04;;;;;;;8.53;2.00;;;;;;;19.71;64.14;100609.13;5073164;28;20396;-62
2022/10/02 06:19:45;;;;;;;4.70;1.80;;;;;;;19.70;64.27;100590.28;5056549;28;20408;-62
2022/10/02 06:22:20;;;;;;;4.10;1.77;;;;;;;19.70;64.23;100601.75;5057974;28;20396;-62
2022/10/02 06:24:50;;;;;;;6.73;2.47;;;;;;;19.70;64.41;100598.03;5044296;28;20851;-62
2022/10/02 06:27:43;;;;;;;4.77;1.50;;;;;;;19.71;64.30;100612.00;5051053;28;20410;-62
2022/10/02 06:30:17;;;;;;;6.43;2.10;;;;;;;19.73;64.13;100623.91;5069435;28;20397;-62
2022/10/02 06:32:58;;;;;;;8.37;2.03;;;;;;;19.73;64.00;100612.44;5067972;28;20713;-62
2022/10/02 06:35:30;;;;;;;4.83;1.70;;;;;;;19.69;64.37;100599.25;5070536;28;20532;-63
2022/10/02 06:38:18;;;;;;;8.00;1.93;;;;;;;19.68;64.23;100581.25;5032028;28;20433;-62
2022/10/02 06:41:06;;;;;;;5.40;1.90;;;;;;;19.67;64.05;100585.31;5034961;28;20524;-62
2022/10/02 06:44:02;;;;;;;4.63;1.90;;;;;;;19.68;64.27;100587.00;5068469;28;20464;-63
2022/10/02 06:46:37;;;;;;;5.47;2.03;;;;;;;19.69;64.26;100582.91;5070602;28;20536;-62
2022/10/02 06:49:18;;;;;;;4.23;1.70;;;;;;;19.68;64.35;100575.53;5070294;28;20951;-63
2022/10/02 06:51:52;;;;;;;5.13;2.10;;;;;;;19.70;64.20;100569.41;5022729;28;20459;-62
2022/10/02 06:54:38;;;;;;;6.10;1.80;;;;;;;19.70;64.22;100584.56;5031846;28;20431;-62
2022/10/02 06:57:29;;;;;;;5.27;1.70;;;;;;;19.75;64.24;100597.72;5031252;28;20774;-62
2022/10/02 07:00:11;;;;;;;4.70;1.73;;;;;;;19.71;64.30;100603.38;5030621;28;20426;-62
2022/10/02 07:02:42;;;;;;;6.10;1.63;;;;;;;19.72;64.07;100592.78;5040842;28;20530;-63
2022/10/02 07:05:23;;;;;;;6.13;2.23;;;;;;;19.71;64.33;100591.13;5011021;28;20451;-62
2022/10/02 07:07:57;;;;;;;4.93;1.77;;;;;;;19.70;64.19;100601.75;5011447;28;20424;-62
2022/10/02 07:10:51;;;;;;;9.27;1.90;;;;;;;19.69;64.27;100605.81;5010392;28;20443;-62
2022/10/02 07:13:38;;;;;;;6.33;1.80;;;;;;;19.70;64.21;100604.59;5009803;28;20451;-62
2022/10/02 07:16:13;;;;;;;4.83;1.60;;;;;;;19.68;64.41;100624.22;5028971;28;20412;-62
2022/10/02 07:19:05;;;;;;;6.17;1.67;;;;;;;19.69;64.18;100616.44;5030279;28;20413;-62
2022/10/02 07:21:38;;;;;;;3.43;1.70;;;;;;;19.70;64.13;100581.69;5028753;28;20411;-62
2022/10/02 07:24:39;;;;;;;4.73;1.60;;;;;;;19.71;64.30;100586.22;5030375;28;20419;-62
2022/10/02 07:27:11;;;;;;;6.37;2.37;;;;;;;19.69;64.41;100594.38;5029861;28;20456;-62
2022/10/02 07:29:52;;;;;;;5.27;1.87;;;;;;;19.69;63.74;100599.25;5034192;28;20423;-62
2022/10/02 07:32:39;;;;;;;3.57;1.57;;;;;;;19.70;64.15;100596.00;5032483;28;20427;-62
2022/10/02 07:35:48;;;;;;;5.70;2.03;;;;;;;19.70;64.29;100607.47;5050074;28;20556;-62
2022/10/02 07:38:42;;;;;;;5.27;1.83;;;;;;;19.73;64.15;100603.84;5050184;28;20442;-62
2022/10/02 07:41:29;;;;;;;5.57;2.13;;;;;;;19.71;64.26;100594.00;5043268;28;20851;-62
2022/10/02 07:44:16;;;;;;;6.47;2.17;;;;;;;19.70;64.37;100604.59;5033084;28;20890;-62
2022/10/02 07:46:58;;;;;;;5.47;1.87;;;;;;;19.72;64.54;100602.19;5031842;28;20474;-63
2022/10/02 07:49:54;;;;;;;4.90;1.80;;;;;;;19.71;64.35;100597.66;5033071;28;20446;-63
2022/10/02 07:52:51;;;;;;;3.00;1.27;;;;;;;19.72;64.35;100569.84;5032402;28;20411;-62
2022/10/02 07:55:23;;;;;;;4.23;1.80;;;;;;;19.71;64.18;100563.28;5033801;28;20442;-63
2022/10/02 07:58:12;;;;;;;3.57;1.47;;;;;;;19.71;64.18;100571.06;5016310;28;20407;-62
2022/10/02 08:00:53;;;;;;;4.03;1.67;;;;;;;19.70;64.31;100584.56;5016227;28;20782;-63
2022/10/02 08:03:24;;;;;;;3.90;1.40;;;;;;;19.69;64.36;100587.78;5037993;28;20410;-62
2022/10/02 08:05:52;;;;;;;8.47;2.10;;;;;;;19.71;64.24;100582.53;5051994;28;20450;-62
2022/10/02 08:08:39;;;;;;;4.63;1.60;;;;;;;19.71;64.12;100583.34;5019172;28;20434;-62
2022/10/02 08:11:11;;;;;;;3.60;1.80;;;;;;;19.71;64.19;100589.06;5053174;28;20402;-62
2022/10/02 08:13:58;;;;;;;3.97;1.90;;;;;;;19.72;64.10;100585.00;5052127;28;20513;-62
2022/10/02 08:16:26;;;;;;;3.70;1.90;;;;;;;19.73;64.39;100591.56;5042422;28;20993;-63
2022/10/02 08:18:58;;;;;;;6.20;2.03;;;;;;;19.72;64.18;100593.59;5051637;28;20423;-62
2022/10/02 08:21:24;;;;;;;4.70;1.60;;;;;;;19.71;64.29;100586.22;5051719;28;20452;-62
2022/10/02 08:24:00;;;;;;;3.40;1.37;;;;;;;19.71;64.17;100588.25;5051990;28;20426;-63
2022/10/02 08:26:45;;;;;;;6.00;1.43;;;;;;;19.75;64.27;100586.25;5051573;28;20215;-62
2022/10/02 08:29:19;;;;;;;3.37;1.33;;;;;;;19.75;64.05;100569.91;5051731;28;20425;-62
2022/10/02 08:31:45;;;;;;;4.10;1.50;;;;;;;19.75;64.15;100587.09;5033294;28;20455;-62
2022/10/02 08:34:18;;;;;;;8.93;2.03;;;;;;;19.75;64.09;100583.41;5012071;28;20414;-62
2022/10/02 08:36:59;;;;;;;5.43;1.73;;;;;;;19.74;63.67;100585.44;4995409;28;20173;-62
2022/10/02 08:39:52;;;;;;;8.00;1.70;;;;;;;19.73;64.03;100589.53;5011457;28;20451;-62
2022/10/02 08:42:46;;;;;;;4.27;1.83;;;;;;;19.73;64.30;100585.84;5015729;28;20410;-62
2022/10/02 08:45:46;;;;;;;3.60;1.50;;;;;;;19.73;64.18;100580.94;5028283;28;20543;-62
2022/10/02 08:48:39;;;;;;;4.73;1.80;;;;;;;19.73;64.04;100578.06;5027635;28;20498;-63
2022/10/02 08:51:32;;;;;;;5.80;1.70;;;;;;;19.73;64.15;100572.34;5025615;28;20463;-62
2022/10/02 08:54:25;;;;;;;5.43;1.73;;;;;;;19.76;64.02;100565.84;5028437;28;20488;-62
2022/10/02 08:57:03;;;;;;;3.87;1.50;;;;;;;19.75;64.49;100558.44;5030605;28;20403;-62
2022/10/02 08:59:41;;;;;;;4.53;1.57;;;;;;;19.75;64.15;100569.06;5028078;28;20481;-62
2022/10/02 09:02:30;;;;;;;4.90;1.60;;;;;;;19.74;64.15;100576.84;5032580;28;20918;-62
2022/10/02 09:05:34;;;;;;;4.70;1.97;;;;;;;19.78;64.02;100568.31;5032029;28;20473;-62
2022/10/02 09:08:07;;;;;;;5.23;1.80;;;;;;;19.74;63.53;100556.81;5030666;28;20408;-62
2022/10/02 09:10:46;;;;;;;4.60;1.73;;;;;;;19.77;64.32;100553.16;5012530;28;20469;-63
2022/10/02 09:13:11;;;;;;;3.43;1.50;;;;;;;19.76;64.16;100548.66;5011256;28;20400;-62
2022/10/02 09:15:43;;;;;;;3.87;1.77;;;;;;;19.77;63.92;100544.56;5012368;28;20419;-63
2022/10/02 09:18:18;;;;;;;4.97;2.10;;;;;;;19.75;64.18;100535.53;5012403;28;20165;-62
2022/10/02 09:21:15;;;;;;;3.70;1.60;;;;;;;19.76;64.13;100534.31;4995300;28;20519;-62
2022/10/02 09:23:43;;;;;;;4.90;1.50;;;;;;;19.76;64.38;100530.66;5012151;28;20405;-62
2022/10/02 09:26:22;;;;;;;3.60;1.37;;;;;;;19.77;64.01;100521.63;5011936;28;20451;-62
2022/10/02 09:29:10;;;;;;;5.03;1.80;;;;;;;19.80;63.88;100518.03;5012423;28;20424;-62
2022/10/02 09:31:47;;;;;;;7.40;1.93;;;;;;;19.78;64.04;100531.06;5024995;28;20505;-63
2022/10/02 09:34:40;;;;;;;4.60;1.57;;;;;;;19.78;64.04;100540.50;5030409;28;20414;-63
2022/10/02 09:37:11;;;;;;;3.80;1.83;;;;;;;19.80;64.29;100534.38;5030373;28;20460;-63
2022/10/02 09:39:42;;;;;;;3.00;1.17;;;;;;;19.79;63.78;100542.16;5030458;28;20890;-63
2022/10/02 09:42:14;;;;;;;3.50;1.70;;;;;;;19.75;64.18;100541.25;5030160;28;20391;-62
2022/10/02 09:44:45;;;;;;;5.67;1.60;;;;;;;19.77;64.19;100544.56;5026702;28;21145;-63
2022/10/02 09:47:42;;;;;;;5.30;1.90;;;;;;;19.77;64.02;100540.88;5030649;28;20499;-63
2022/10/02 09:50:26;;;;;;;5.63;1.67;;;;;;;19.78;64.17;100536.81;5029871;28;20406;-62
2022/10/02 09:53:12;;;;;;;5.27;1.50;;;;;;;19.74;64.27;100533.88;5015271;28;20473;-62
2022/10/02 09:56:12;;;;;;;13.73;1.60;;;;;;;19.76;63.98;100531.44;5031381;28;20400;-63
2022/10/02 09:59:00;;;;;;;3.07;1.17;;;;;;;19.77;63.96;100550.28;5031591;28;20407;-62
2022/10/02 10:01:29;;;;;;;5.20;2.27;;;;;;;19.78;64.11;100556.84;5029969;28;20514;-63
2022/10/02 10:04:33;;;;;;;3.80;1.30;;;;;;;19.78;64.04;100551.97;5041469;28;20402;-63
2022/10/02 10:07:25;;;;;;;5.50;1.60;;;;;;;19.77;64.20;100558.06;5050032;28;20410;-63
2022/10/02 10:10:13;;;;;;;4.20;1.60;;;;;;;19.78;64.04;100551.13;5051483;28;20509;-63
2022/10/02 10:13:14;;;;;;;5.57;1.40;;;;;;;19.77;64.20;100550.28;5051124;28;20932;-63
2022/10/02 10:16:22;;;;;;;5.17;1.60;;;;;;;19.78;63.98;100557.69;5050825;28;20398;-63
2022/10/02 10:19:09;;;;;;;4.23;1.60;;;;;;;19.79;64.11;100545.03;5045484;28;20413;-63
2022/10/02 10:22:17;;;;;;;3.10;1.23;;;;;;;19.77;64.25;100546.63;5050898;28;20438;-63
2022/10/02 10:24:53;;;;;;;2.53;1.20;;;;;;;19.80;63.90;100543.81;5049688;28;20414;-63
2022/10/02 10:27:29;;;;;;;4.17;1.40;;;;;;;19.79;64.30;100532.72;5049696;28;20398;-63
2022/10/02 10:30:27;;;;;;;6.07;1.30;;;;;;;19.80;64.01;100535.22;5050902;28;20414;-63
2022/10/02 10:33:26;;;;;;;3.23;1.50;;;;;;;19.79;64.11;100535.59;5030428;28;20415;-63
2022/10/02 10:39:34;;;;;;;8.80;2.03;;;;;;;19.80;64.20;100532.34;5029052;28;20534;-63
2022/10/02 10:42:13;;;;;;;5.50;1.63;;;;;;;19.79;64.28;100524.13;5029139;28;20418;-63
2022/10/02 10:44:58;;;;;;;4.07;1.37;;;;;;;19.77;64.40;100535.16;5028439;28;20501;-63
2022/10/02 10:47:35;;;;;;;4.03;1.63;;;;;;;19.77;64.07;100533.09;5028710;28;20914;-63
2022/10/02 10:50:31;;;;;;;2.33;1.20;;;;;;;19.79;63.95;100527.84;5029892;28;20754;-63
2022/10/02 10:53:03;;;;;;;5.80;2.03;;;;;;;19.79;64.05;100533.56;5013627;28;20477;-63
2022/10/02 10:55:28;;;;;;;4.97;1.30;;;;;;;19.80;64.12;100526.63;5030021;28;20417;-63
2022/10/02 10:58:31;;;;;;;5.07;1.40;;;;;;;19.80;63.91;100528.63;5030537;28;20395;-63
2022/10/02 11:01:06;;;;;;;4.50;1.40;;;;;;;19.78;64.24;100533.94;5031077;28;20186;-63
2022/10/02 11:03:51;;;;;;;5.00;1.57;;;;;;;19.79;64.11;100532.72;5041561;28;20770;-63
2022/10/02 11:06:22;;;;;;;2.43;1.13;;;;;;;19.76;64.05;100531.44;5038151;28;20457;-63
2022/10/02 11:09:11;;;;;;;2.53;1.30;;;;;;;19.80;64.11;100540.09;5054398;28;20485;-63
2022/10/02 11:11:50;;;;;;;3.60;1.13;;;;;;;19.80;64.19;100538.06;5054345;28;20394;-63
2022/10/02 11:14:27;;;;;;;3.80;1.47;;;;;;;19.80;63.86;100529.47;5051382;28;20501;-63
2022/10/02 11:17:37;;;;;;;3.27;1.57;;;;;;;19.76;64.14;100520.00;5032258;28;20406;-63
2022/10/02 11:20:15;;;;;;;4.93;1.60;;;;;;;19.78;64.19;100516.75;5022052;28;20854;-63
2022/10/02 11:22:43;;;;;;;6.40;1.57;;;;;;;19.81;64.05;100528.25;5032539;28;20465;-63
2022/10/02 11:25:24;;;;;;;6.40;1.50;;;;;;;19.80;64.17;100531.50;5032390;28;20446;-62
2022/10/02 11:28:11;;;;;;;3.73;1.50;;;;;;;19.81;64.18;100534.00;5032687;28;20429;-63
2022/10/02 11:31:13;;;;;;;2.87;1.13;;;;;;;19.79;64.20;100545.03;5031918;28;20469;-64
2022/10/02 11:33:54;;;;;;;3.43;1.27;;;;;;;19.80;64.02;100545.84;5015687;28;20418;-63
2022/10/02 11:36:41;;;;;;;4.53;1.63;;;;;;;19.80;64.25;100558.13;5032365;28;21149;-63
2022/10/02 11:39:31;;;;;;;3.80;1.13;;;;;;;19.78;64.14;100549.09;5034015;28;20391;-63
2022/10/02 11:42:23;;;;;;;4.57;1.60;;;;;;;19.77;64.27;100550.28;5033452;28;20399;-63
2022/10/02 11:44:58;;;;;;;4.60;1.40;;;;;;;19.80;64.03;100543.81;5034022;28;20399;-63
2022/10/02 11:47:35;;;;;;;2.87;1.10;;;;;;;19.77;64.30;100556.03;5033656;28;20814;-63
2022/10/02 11:50:12;;;;;;;7.30;1.57;;;;;;;19.78;64.17;100571.19;5034024;28;20828;-63
2022/10/02 11:52:43;;;;;;;4.13;1.23;;;;;;;19.78;64.13;100574.06;5072822;28;20507;-63
2022/10/02 11:55:27;;;;;;;4.33;1.60;;;;;;;19.79;64.25;100576.53;5073745;28;20421;-63
2022/10/02 11:57:55;;;;;;;3.17;1.43;;;;;;;19.79;64.20;100585.13;5073430;28;20471;-63
2022/10/02 12:00:42;;;;;;;4.37;1.33;;;;;;;19.81;64.20;100584.75;5073694;28;21123;-63
2022/10/02 12:03:18;;;;;;;3.47;1.40;;;;;;;19.80;64.14;100571.63;5073485;28;20743;-63
2022/10/02 12:05:59;;;;;;;3.43;1.43;;;;;;;19.78;63.96;100586.34;5055547;28;20959;-63
2022/10/02 12:08:34;;;;;;;3.20;1.17;;;;;;;19.79;64.15;100582.25;5055374;28;20927;-63
2022/10/02 12:11:50;;;;;;;3.60;1.30;;;;;;;19.80;64.50;100572.47;5073335;28;20405;-63
2022/10/02 12:14:24;;;;;;;3.63;1.20;;;;;;;19.80;64.14;100572.47;5027961;28;20459;-63
2022/10/02 12:17:10;;;;;;;2.83;1.10;;;;;;;19.80;64.10;100575.31;5055286;28;20417;-62
2022/10/02 12:19:38;;;;;;;2.40;1.30;;;;;;;19.79;64.30;100569.97;5055830;28;20421;-63
2022/10/02 12:28:20;;;;;;;5.50;1.77;;;;;;;19.78;64.26;100569.16;5071442;28;20514;-63
2022/10/02 12:31:09;;;;;;;4.03;1.70;;;;;;;19.79;64.11;100567.94;5087095;28;20809;-63
2022/10/02 12:34:07;;;;;;;2.33;1.23;;;;;;;19.81;64.12;100564.69;5042516;28;20433;-63
2022/10/02 12:36:57;;;;;;;2.80;1.30;;;;;;;19.79;64.34;100564.25;5072604;28;20851;-63